Du har inga inställningar för hoppväder.nu

Hoppväder.nu

Senast uppdaterat 10:20

UTC-tid

2019-04-23 kl. 08:20


Sol och måne

Solen går upp 4:57 och går ner 21:40 (beräknade cirkatider)
Nästa fullmåne blir om 25 dagar (2019-05-18)

METAR

ESNN (Sundsvall)
(30 minuter sedan)
ESNN 230750Z VRB01KT CAVOK 13/04 Q1022=



ESNK (Kramfors)
(30 minuter sedan)
ESNK 230750Z 00000KT CAVOK 08/02 Q1022=



ESNO (Örnsköldsvik)
(30 minuter sedan)
ESNO 230750Z 23007KT CAVOK 16/02 Q1021=



ESNY (Söderhamn)
ESNY NIL=



ESNZ (Östersund)
(30 minuter sedan)
ESNZ 230750Z VRB03KT CAVOK 12/00 Q1021=



TAF

ESNN (Sundsvall)
(170 minuter sedan)
ESNN 230530Z 2306/2315 VRB02KT CAVOK=



ESNK (Kramfors)
(170 minuter sedan)
ESNK 230530Z 2306/2309 VRB02KT CAVOK=



ESNO (Örnsköldsvik)
(170 minuter sedan)
ESNO 230530Z 2306/2309 28006KT CAVOK=



ESNY (Söderhamn)
ESNY



ESNZ (Östersund)
(170 minuter sedan)
ESNZ 230530Z 2306/2315 21004KT CAVOK=





Kodnycklar till TAF och METAR






LHP

(Sundsvall är område D1a i Sydöstra delen)

ÖVERSIKT FÖR OMRÅDE C UTFÄRDAD 230715
GÄLLANDE DEN 23 APRIL 2019 MELLAN 08 OCH 16 UTC


Väderöversikt

En högtrycksrygg täcker norra Sverige I Dala och södra Norrlandsfjällen förekommer klart eller nästan klart väder och en svag byig vind I Lapplandsfjällen förekommer klart eller nästan klart väder och en frisk till hård västlig vind

Sikt under 5 kilometer eller molnbas under 1000 fot
Väntas inte förekomma under perioden.

Måttlig eller svår isbildning
Väntas inte förekomma under perioden

Måttlig eller svår turbulens
Väntas inte förekomma under perioden



PROGNOS FÖR OMRÅDE C DEN SYDÖSTRA DELEN UTFÄRDAD 230715
GÄLLANDE DEN 23 APRIL 2019 MELLAN 08 OCH 16 UTC

Måttlig eller svår turbulens
08-16UTC: I hela området: Väntas inte förekomma under perioden

Måttlig eller svår isbildning
08-16UTC: I hela området: Väntas inte förekomma under perioden

Sikt/Väder/Moln
08-16UTC: I hela området: Sikt >8km. Molnbas >2000ft.

Molnöversida
08-16UTC: I hela området: Ingen prognos

CB/TCU Moln
08-16UTC: I hela området: Väntas inte förekomma under perioden

Nollgradersisoterm
08-16UTC: Noll grader FL080 - FL095.

Vind vid marken
08-10UTC: Område D2b: S-SV/0-9 knop, byar upp till 16 knop.
Område D1a: S-SV/1-15 knop, byar upp till 18 knop.
Område D1c: S-SV/7-16 knop, byar upp till 20 knop.
Område D2a: SV/0-6 knop, byar upp till 16 knop.
Område D1b: S-SV/4-15 knop, byar upp till 18 knop.

10-12UTC: Område D2b: S-SV/5-12 knop, byar upp till 19 knop.
Område D2a: SV/0-7 knop, byar upp till 16 knop.
Område D1a: S/2-16 knop, byar upp till 19 knop.
Område D1b: S/5-15 knop, byar upp till 18 knop.
Område D1c: S/7-16 knop, byar upp till 19 knop.

12-14UTC: Område D2a: S-SV/1-8 knop, byar upp till 18 knop.
Område D2b: SV/3-11 knop, byar upp till 21 knop.
Område D1a: S/4-17 knop, byar upp till 21 knop.
Område D1c: S/4-16 knop, byar upp till 19 knop.
Område D1b: S/5-16 knop, byar upp till 19 knop.

14-16UTC: Område D1b: S/4-16 knop, byar upp till 20 knop.
Område D2a: S-SV/0-7 knop, byar upp till 17 knop.
Område D1a: S/2-18 knop, byar upp till 21 knop.
Område D2b: S-SV/3-9 knop, byar upp till 19 knop.
Område D1c: S/5-16 knop, byar upp till 19 knop.


Genomsnittlig vind och temperatur för området
2000ft:
08-10UTC: 230/17kt +10.
10-16UTC: 220/18kt +10.

FL50:
08-10UTC: 220/15kt +6.
10-14UTC: 220/15kt +5.
14-16UTC: 220/13kt +5.

FL100:
08-10UTC: 180/12kt -3.
10-12UTC: 170/14kt -3.
12-14UTC: 170/15kt -3.
14-16UTC: 170/13kt -3.

Lägsta QNH
1021 hPa.

OBS! endast utbredd måttlig eller svår isbildning och turbulens prognostiseras i LLF.
Avsaknad av isbildning och turbulens i prognosen utesluter inte förekomst av lätt isbildning och turbulens.
För indikation på lätt isbildning, var vänlig kontrollera om prognosen för molntopp ligger högre än nollgradersisotermen.
Förekomst av TCU eller CB medför alltid en risk för måttlig eller svår isbildning och turbulens även om det inte framgår explicit av prognosen.





Spotting

Hur fungerar spotthjälpen och Vindkartan?

Markvind är ca 1-8 m/s med byar på 9 m/s.
Vind på 600 m ca 9 m/s.
Vind på 1500 m ca 8 m/s.
Vind på 3000 m ca 6 m/s.
Feppen flyger ca 30 m/s över marken på finalen.
Du driver ca 278 m bakåt i frifall. (370 m)
Lämplig spot är 0 sekunder eller 0 m innan gropen.
(3s eller 90 m)
För små grupper eller ensamhoppare bör man vänta 5-7 sekunder mellan grupperna.
För större grupper bör man vänta 10-12 sekunder mellan grupperna.


Vindkartan

Senast uppdaterad 10:20




All data kommer från LFV.se